Search for airport 
image banner adimage banner adimage banner ad
image banner ad

5CA6 - San Joaquin Helicopters

Located in Delano, United States

ICAO - 5CA6, IATA -

Data provided by Airmate  

General information

Coordinates: N35°47'29" W119°13'54"
Elevation is 335 feet MSL.
Magnetic variation is 15° East
View others Airports in California

Operational data

Special qualification required
Current time UTC:
Current local time:
Weather at : KDLO - Delano Muni ( 5 km )
METAR: KDLO 240955Z AUTO 24004KT 10SM CLR 18/08 A2994 RMK AO2 T01840077
View NOTAMs / SUP AIP / TFR affecting this airport [VIEW]
Communications frequencies: [VIEW]

Runways:

Airport contact information

Address: Delano United States

Satellite view of 5CA6